createdAt,value
2023-03-28T00:02:53.855Z,9.44
2023-03-28T00:06:54.678Z,9.44
2023-03-28T00:10:54.562Z,9.42
2023-03-28T00:14:52.616Z,9.43
2023-03-28T00:18:50.649Z,9.42
2023-03-28T00:22:48.924Z,9.48
2023-03-28T00:26:46.096Z,9.34
2023-03-28T00:30:48.326Z,9.45
2023-03-28T00:34:45.784Z,9.51
2023-03-28T00:38:46.302Z,9.54
2023-03-28T00:42:44.207Z,9.52
2023-03-28T00:46:46.812Z,9.52
2023-03-28T00:50:43.982Z,9.49
2023-03-28T00:54:42.739Z,9.44
2023-03-28T00:58:41.220Z,9.39
2023-03-28T01:02:39.625Z,9.33
2023-03-28T01:06:40.858Z,9.29
2023-03-28T01:10:42.203Z,9.24
2023-03-28T01:14:38.948Z,9.17
2023-03-28T01:18:40.783Z,9.02
2023-03-28T01:22:38.054Z,9.03
2023-03-28T01:26:38.568Z,8.97
2023-03-28T01:30:34.986Z,8.98
2023-03-28T01:34:56.589Z,9.01
2023-03-28T01:38:52.635Z,8.97
2023-03-28T01:42:53.311Z,9.08
2023-03-28T01:46:50.165Z,9.24
2023-03-28T01:50:51.251Z,9.30
2023-03-28T01:54:47.861Z,9.37
2023-03-28T01:58:49.609Z,9.44
2023-03-28T02:02:55.882Z,9.47
2023-03-28T02:07:01.517Z,9.52
2023-03-28T02:11:04.819Z,9.45
2023-03-28T02:15:10.054Z,9.41
2023-03-28T02:19:25.993Z,9.51
2023-03-28T02:23:56.167Z,9.36
2023-03-28T02:28:07.392Z,9.48
2023-03-28T02:32:13.034Z,9.44
2023-03-28T02:36:10.321Z,9.54
2023-03-28T02:40:10.778Z,9.69
2023-03-28T02:44:08.218Z,9.60
2023-03-28T02:48:08.976Z,9.56
2023-03-28T02:52:06.044Z,9.47
2023-03-28T02:56:06.866Z,9.47
2023-03-28T03:00:40.083Z,9.46
2023-03-28T03:04:41.962Z,9.43
2023-03-28T03:08:39.104Z,9.47
2023-03-28T03:12:39.734Z,9.52
2023-03-28T03:16:36.252Z,9.43
2023-03-28T03:20:37.209Z,9.44
2023-03-28T03:24:36.433Z,9.36
2023-03-28T03:28:37.205Z,9.50
2023-03-28T03:32:35.112Z,9.52
2023-03-28T03:36:37.758Z,9.49
2023-03-28T03:40:35.876Z,9.49
2023-03-28T03:44:37.204Z,9.49
2023-03-28T03:48:34.917Z,9.48
2023-03-28T03:52:35.686Z,9.46
2023-03-28T03:56:37.423Z,9.46
2023-03-28T04:00:34.185Z,9.44
2023-03-28T04:04:36.733Z,9.37
2023-03-28T04:09:04.990Z,9.37
2023-03-28T04:13:40.515Z,9.44
2023-03-28T04:17:38.251Z,9.45
2023-03-28T04:21:47.231Z,9.51
2023-03-28T04:25:47.910Z,9.56
2023-03-28T04:29:53.541Z,9.51
2023-03-28T04:34:26.670Z,9.50
2023-03-28T04:38:33.388Z,9.55
2023-03-28T04:42:45.566Z,9.60
2023-03-28T04:46:53.980Z,9.68
2023-03-28T04:50:52.070Z,9.69
2023-03-28T04:54:50.408Z,9.73
2023-03-28T04:58:50.297Z,9.71
2023-03-28T05:02:51.429Z,9.83
2023-03-28T05:06:55.443Z,9.87
2023-03-28T05:10:52.396Z,9.95
2023-03-28T05:14:55.758Z,10.03
2023-03-28T05:18:52.373Z,10.10
2023-03-28T05:22:56.939Z,10.22
2023-03-28T05:26:56.402Z,10.29
2023-03-28T05:30:56.691Z,10.18
2023-03-28T05:34:53.396Z,10.18
2023-03-28T05:38:54.933Z,10.27
2023-03-28T05:42:51.620Z,10.32
2023-03-28T05:46:54.546Z,10.27
2023-03-28T05:50:51.744Z,10.31
2023-03-28T05:54:52.524Z,10.43
2023-03-28T05:58:51.308Z,10.52
2023-03-28T06:02:52.272Z,10.54
2023-03-28T06:06:52.449Z,10.58
2023-03-28T06:10:58.042Z,10.65
2023-03-28T06:14:59.491Z,10.70
2023-03-28T06:19:17.788Z,10.74
2023-03-28T06:23:23.304Z,10.81
2023-03-28T06:27:24.988Z,10.77
2023-03-28T06:31:22.567Z,10.79
2023-03-28T06:35:23.735Z,10.80
2023-03-28T06:39:24.556Z,10.78
2023-03-28T06:43:29.064Z,10.75
2023-03-28T06:47:42.558Z,10.68
2023-03-28T06:51:43.758Z,10.67
2023-03-28T06:55:43.518Z,10.50
2023-03-28T06:59:43.054Z,10.27
2023-03-28T07:03:44.946Z,10.03
2023-03-28T07:07:48.532Z,9.82
2023-03-28T07:11:45.765Z,9.76
2023-03-28T07:15:46.417Z,9.78
2023-03-28T07:19:47.341Z,9.80
2023-03-28T07:23:44.336Z,9.84
2023-03-28T07:27:43.917Z,9.80
2023-03-28T07:31:40.551Z,9.82
2023-03-28T07:35:42.021Z,9.81
2023-03-28T07:39:46.726Z,9.78
2023-03-28T07:43:49.749Z,9.74
2023-03-28T07:47:47.063Z,9.70
2023-03-28T07:51:47.809Z,9.67
2023-03-28T07:55:55.205Z,9.60
2023-03-28T08:00:05.243Z,9.56
2023-03-28T08:04:10.685Z,9.57
2023-03-28T08:08:23.071Z,9.68
2023-03-28T08:12:42.994Z,9.68
2023-03-28T08:16:44.440Z,9.68
2023-03-28T08:20:41.814Z,9.72
2023-03-28T08:24:51.207Z,9.77
2023-03-28T08:28:59.443Z,9.65
2023-03-28T08:33:00.572Z,9.58
2023-03-28T08:36:57.725Z,9.50
2023-03-28T08:41:00.322Z,9.36
2023-03-28T08:44:58.695Z,9.31
2023-03-28T08:48:59.459Z,9.25
2023-03-28T08:53:08.288Z,9.21
2023-03-28T08:57:06.329Z,9.20
2023-03-28T09:01:13.112Z,9.16
2023-03-28T09:05:27.002Z,9.18
2023-03-28T09:09:31.844Z,9.21
2023-03-28T09:13:37.184Z,9.18
2023-03-28T09:17:41.819Z,9.24
2023-03-28T09:21:49.234Z,9.30
2023-03-28T09:25:48.265Z,9.36
2023-03-28T11:45:18.707Z,8.18
2023-03-28T11:48:32.258Z,8.21
2023-03-28T11:51:58.522Z,8.28
2023-03-28T11:55:37.733Z,8.39
2023-03-28T11:58:59.050Z,8.45
2023-03-28T12:02:22.327Z,8.45
2023-03-28T12:06:00.020Z,8.43
2023-03-28T12:09:28.827Z,8.35
2023-03-28T12:13:00.226Z,8.30
2023-03-28T12:16:00.131Z,8.34
2023-03-28T12:19:13.857Z,8.33
2023-03-28T12:22:14.945Z,8.37
2023-03-28T12:25:35.492Z,8.38
2023-03-28T12:29:02.919Z,8.38
2023-03-28T12:32:25.538Z,8.47
2023-03-28T12:35:24.609Z,8.76
2023-03-28T12:38:47.705Z,8.99
2023-03-28T12:41:55.316Z,9.23
2023-03-28T12:44:54.326Z,9.06
2023-03-28T12:48:01.980Z,9.14
2023-03-28T12:51:24.919Z,9.38
2023-03-28T12:54:40.918Z,9.28
2023-03-28T12:57:36.750Z,9.64
2023-03-28T13:01:19.789Z,9.56
2023-03-28T13:05:31.527Z,9.54
2023-03-28T13:09:09.911Z,9.54
2023-03-28T13:12:51.780Z,9.66
2023-03-28T13:16:33.065Z,9.66
2023-03-28T13:20:20.823Z,9.64
2023-03-28T13:23:55.938Z,9.66
2023-03-28T13:27:33.504Z,9.60
2023-03-28T13:31:15.978Z,9.50
2023-03-28T13:35:01.781Z,9.59
2023-03-28T13:38:43.270Z,9.43
2023-03-28T13:42:29.523Z,9.41
2023-03-28T13:46:08.133Z,9.36
2023-03-28T13:49:51.489Z,9.40
2023-03-28T13:53:37.487Z,9.40
2023-03-28T13:57:26.255Z,9.46
2023-03-28T14:01:08.303Z,9.51
2023-03-28T14:04:48.351Z,9.66
2023-03-28T14:08:28.190Z,9.49
2023-03-28T14:12:06.932Z,9.47
2023-03-28T14:15:48.540Z,9.55
2023-03-28T14:19:27.079Z,9.52
2023-03-28T14:23:29.747Z,9.57
2023-03-28T14:27:07.952Z,9.54
2023-03-28T14:30:52.081Z,9.64
2023-03-28T14:34:28.698Z,9.65
2023-03-28T14:38:06.609Z,9.76
2023-03-28T14:41:40.484Z,9.79
2023-03-28T14:45:18.644Z,9.95
2023-03-28T14:48:52.959Z,9.73
2023-03-28T14:52:30.422Z,9.83
2023-03-28T14:56:06.749Z,9.86
2023-03-28T14:59:46.609Z,9.91
2023-03-28T15:03:20.829Z,9.95
2023-03-28T15:06:58.821Z,10.00
2023-03-28T15:10:32.574Z,9.90
2023-03-28T15:14:14.924Z,9.86
2023-03-28T15:17:49.062Z,9.43
2023-03-28T15:21:28.209Z,8.63
2023-03-28T15:25:02.539Z,7.99
2023-03-28T15:28:40.552Z,7.60
2023-03-28T15:32:15.595Z,7.45
2023-03-28T15:35:53.433Z,7.48
2023-03-28T15:39:26.917Z,7.22
2023-03-28T15:42:40.210Z,6.82
2023-03-28T15:45:46.979Z,6.67
2023-03-28T15:49:13.578Z,6.60
2023-03-28T15:52:47.424Z,6.48
2023-03-28T15:56:06.073Z,6.30
2023-03-28T15:59:42.385Z,6.39
2023-03-28T16:03:20.153Z,6.33
2023-03-28T16:06:57.896Z,6.19
2023-03-28T16:10:36.576Z,5.97
2023-03-28T16:14:31.770Z,5.79
2023-03-28T16:18:11.889Z,5.63
2023-03-28T16:21:44.256Z,5.53
2023-03-28T16:25:18.838Z,5.47
2023-03-28T16:28:57.222Z,5.41
2023-03-28T16:32:34.516Z,5.31
2023-03-28T16:36:12.478Z,5.23
2023-03-28T16:39:50.006Z,5.35
2023-03-28T16:43:28.170Z,5.10
2023-03-28T16:47:04.400Z,5.05
2023-03-28T16:50:42.778Z,4.98
2023-03-28T16:54:18.228Z,4.93
2023-03-28T16:57:58.422Z,4.91
2023-03-28T17:01:38.035Z,4.89
2023-03-28T17:05:16.253Z,4.57
2023-03-28T17:08:47.944Z,4.40
2023-03-28T17:12:18.242Z,4.39
2023-03-28T17:15:56.048Z,4.32
2023-03-28T17:19:34.373Z,4.30
2023-03-28T17:23:14.660Z,4.19
2023-03-28T17:26:52.784Z,4.03
2023-03-28T17:30:30.268Z,4.06
2023-03-28T17:34:09.434Z,4.00
2023-03-28T17:37:45.657Z,3.79
2023-03-28T17:41:23.635Z,3.85
2023-03-28T17:45:00.254Z,3.77
2023-03-28T17:48:37.931Z,3.60
2023-03-28T17:52:19.858Z,3.55
2023-03-28T17:55:55.538Z,3.54
2023-03-28T17:59:35.234Z,3.41
2023-03-28T18:03:11.929Z,3.27
2023-03-28T18:06:59.028Z,3.24
2023-03-28T18:10:36.162Z,3.18
2023-03-28T18:14:18.436Z,3.13
2023-03-28T18:17:56.948Z,3.06
2023-03-28T18:21:37.340Z,2.90
2023-03-28T18:25:14.192Z,2.59
2023-03-28T18:28:54.585Z,2.66
2023-03-28T18:32:32.013Z,2.78
2023-03-28T18:36:12.197Z,2.81
2023-03-28T18:39:48.943Z,2.71
2023-03-28T18:43:30.953Z,2.81
2023-03-28T18:47:12.253Z,2.77
2023-03-28T18:50:48.551Z,2.72
2023-03-28T18:54:34.392Z,2.93
2023-03-28T18:58:10.146Z,2.70
2023-03-28T19:01:51.680Z,2.68
2023-03-28T19:05:27.719Z,2.61
2023-03-28T19:09:07.963Z,2.67
2023-03-28T19:12:43.543Z,2.69
2023-03-28T19:16:27.053Z,2.57
2023-03-28T19:20:03.473Z,2.43
2023-03-28T19:23:44.090Z,2.49
2023-03-28T19:27:19.998Z,2.56
2023-03-28T19:31:00.303Z,2.57
2023-03-28T19:34:36.856Z,2.64
2023-03-28T19:38:17.093Z,2.43
2023-03-28T19:41:54.095Z,2.66
2023-03-28T19:45:39.438Z,2.69
2023-03-28T19:49:18.556Z,2.61
2023-03-28T19:53:00.509Z,2.94
2023-03-28T19:56:40.644Z,2.84
2023-03-28T20:00:20.699Z,2.74
2023-03-28T20:04:00.839Z,2.46
2023-03-28T20:07:41.685Z,2.31
2023-03-28T20:11:35.354Z,2.42
2023-03-28T20:15:15.733Z,2.53
2023-03-28T20:18:56.573Z,2.37
2023-03-28T20:22:36.218Z,2.41
2023-03-28T20:26:12.917Z,2.48
2023-03-28T20:29:52.596Z,2.64
2023-03-28T20:33:29.666Z,2.52
2023-03-28T20:37:08.991Z,2.52
2023-03-28T20:40:42.788Z,2.62
2023-03-28T20:44:24.610Z,2.45
2023-03-28T20:48:00.923Z,2.46
2023-03-28T20:51:41.716Z,2.45
2023-03-28T20:55:17.739Z,2.46
2023-03-28T20:59:01.114Z,2.51
2023-03-28T21:02:37.868Z,2.35
2023-03-28T21:06:17.549Z,2.26
2023-03-28T21:09:56.047Z,2.26
2023-03-28T21:13:36.045Z,2.29
2023-03-28T21:17:12.782Z,2.30
2023-03-28T21:20:50.256Z,2.31
2023-03-28T21:24:27.650Z,2.35
2023-03-28T21:28:07.268Z,2.37
2023-03-28T21:31:43.942Z,2.43
2023-03-28T21:35:24.012Z,2.31
2023-03-28T21:38:59.580Z,2.29
2023-03-28T21:42:52.709Z,2.31
2023-03-28T21:46:28.678Z,2.19
2023-03-28T21:50:14.912Z,2.17
2023-03-28T21:53:51.675Z,2.14
2023-03-28T21:57:32.216Z,2.13
2023-03-28T22:01:10.949Z,2.23
2023-03-28T22:04:52.659Z,2.50
2023-03-28T22:08:28.747Z,2.44
2023-03-28T22:12:08.469Z,2.40
2023-03-28T22:15:44.205Z,2.38
2023-03-28T22:19:24.385Z,2.36
2023-03-28T22:23:02.111Z,2.51
2023-03-28T22:26:42.383Z,2.54
2023-03-28T22:30:19.842Z,2.49
2023-03-28T22:34:04.627Z,2.51
2023-03-28T22:37:41.106Z,2.44
2023-03-28T22:41:21.643Z,2.47
2023-03-28T22:44:58.428Z,2.45
2023-03-28T22:48:38.264Z,2.44
2023-03-28T22:52:15.891Z,2.51
2023-03-28T22:55:55.539Z,2.52
2023-03-28T22:59:31.201Z,2.58
2023-03-28T23:03:10.998Z,2.76
2023-03-28T23:06:46.970Z,2.61
2023-03-28T23:10:27.420Z,2.55
2023-03-28T23:14:06.520Z,2.54
2023-03-28T23:17:46.192Z,2.56
2023-03-28T23:21:23.075Z,2.45
2023-03-28T23:25:03.465Z,2.60
2023-03-28T23:28:40.242Z,2.46
2023-03-28T23:32:25.666Z,2.22
2023-03-28T23:36:01.974Z,2.24
2023-03-28T23:39:43.258Z,2.17
2023-03-28T23:43:21.957Z,2.18
2023-03-28T23:47:02.062Z,2.11
2023-03-28T23:50:47.847Z,2.11
2023-03-28T23:54:30.012Z,2.05
2023-03-28T23:58:10.492Z,2.02
